Time;durP1;ratioP1;P1;durP2;ratioP2;P2;SDS_P1;SDS_P2;PMS_P1;PMS_P2;Temp;Humidity;BMP_temperature;BMP_pressure;BME280_temperature;BME280_humidity;BME280_pressure;Samples;Min_cycle;Max_cycle;Signal;HPM_P1;HPM_P2
2022/01/17 00:02:23;;;;;;;12.50;8.88;;;18.60;39.80;;;;;;5075972;28;20158;-36
2022/01/17 00:04:49;;;;;;;11.10;7.95;;;18.60;39.80;;;;;;5075871;28;20088;-36
2022/01/17 00:07:15;;;;;;;10.55;7.80;;;18.60;39.80;;;;;;5075414;28;20594;-35
2022/01/17 00:09:41;;;;;;;11.85;7.93;;;18.60;39.80;;;;;;5075142;28;20028;-35
2022/01/17 00:12:08;;;;;;;10.50;7.80;;;18.60;39.80;;;;;;5074932;28;20009;-36
2022/01/17 00:14:39;;;;;;;11.55;8.35;;;18.60;39.70;;;;;;5075368;28;20012;-35
2022/01/17 00:17:56;;;;;;;11.02;8.02;;;18.60;39.70;;;;;;5075036;28;20021;-36
2022/01/17 00:19:55;;;;;;;10.90;7.90;;;18.60;39.80;;;;;;5061044;28;20033;-36
2022/01/17 00:22:21;;;;;;;11.45;7.47;;;18.60;39.80;;;;;;5075494;28;20095;-36
2022/01/17 00:24:48;;;;;;;10.60;7.88;;;18.70;39.80;;;;;;5076111;28;20027;-36
2022/01/17 00:27:14;;;;;;;12.10;7.97;;;18.70;39.80;;;;;;5075854;28;20013;-36
2022/01/17 00:29:41;;;;;;;10.20;7.70;;;18.70;39.80;;;;;;5075984;28;20074;-37
2022/01/17 00:32:07;;;;;;;11.43;8.20;;;18.70;39.80;;;;;;5057432;28;20029;-37
2022/01/17 00:34:33;;;;;;;11.38;7.93;;;18.60;39.80;;;;;;5075928;28;20013;-36
2022/01/17 00:36:59;;;;;;;11.18;8.20;;;18.60;39.80;;;;;;5075527;28;20016;-37
2022/01/17 00:39:25;;;;;;;10.90;8.18;;;18.60;39.70;;;;;;5074563;28;20468;-36
2022/01/17 00:41:51;;;;;;;10.70;7.65;;;18.70;39.80;;;;;;5073978;28;20398;-36
2022/01/17 00:44:21;;;;;;;9.98;7.72;;;18.70;39.90;;;;;;5073839;28;20012;-35
2022/01/17 00:46:47;;;;;;;10.98;8.07;;;18.70;39.80;;;;;;5056962;28;20025;-36
2022/01/17 00:49:13;;;;;;;10.68;8.07;;;18.70;39.80;;;;;;5074059;28;20036;-35
2022/01/17 00:51:39;;;;;;;10.90;7.70;;;18.70;39.80;;;;;;5074585;28;20020;-36
2022/01/17 00:54:05;;;;;;;11.07;7.75;;;18.70;39.80;;;;;;5078128;28;20033;-37
2022/01/17 00:56:31;;;;;;;10.95;8.20;;;18.70;39.70;;;;;;5078646;28;20025;-36
2022/01/17 00:58:58;;;;;;;11.45;7.80;;;18.70;39.80;;;;;;5079750;28;20059;-36
2022/01/17 01:01:24;;;;;;;12.18;8.60;;;18.70;39.90;;;;;;5080007;28;20047;-36
2022/01/17 01:03:50;;;;;;;11.25;8.05;;;18.70;39.90;;;;;;5061573;28;20029;-36
2022/01/17 01:06:15;;;;;;;11.13;7.90;;;18.70;39.90;;;;;;5079790;28;20515;-36
2022/01/17 01:08:41;;;;;;;10.50;7.72;;;18.70;39.90;;;;;;5074151;28;20459;-35
2022/01/17 01:11:08;;;;;;;10.43;7.85;;;18.70;39.90;;;;;;5074824;28;20036;-35
2022/01/17 01:13:34;;;;;;;11.77;8.35;;;18.70;39.90;;;;;;5075240;28;20095;-36
2022/01/17 01:19:25;;;;;;;11.70;8.38;;;18.70;39.90;;;;;;5075476;28;20095;-40
2022/01/17 01:29:29;;;;;;;9.75;7.53;;;18.70;40.00;;;;;;5074466;28;20097;-36
2022/01/17 01:32:17;;;;;;;10.45;7.65;;;18.70;40.00;;;;;;5076113;28;20043;-35
2022/01/17 01:34:50;;;;;;;10.48;8.18;;;18.70;39.90;;;;;;5081609;28;20471;-36
2022/01/17 01:37:16;;;;;;;9.80;7.28;;;18.70;39.90;;;;;;5081339;28;20024;-35
2022/01/17 01:39:42;;;;;;;10.23;7.90;;;18.70;39.90;;;;;;5087636;28;20383;-37
2022/01/17 01:42:30;;;;;;;11.30;7.80;;;18.70;39.80;;;;;;5087762;28;20028;-37
2022/01/17 01:44:56;;;;;;;9.98;8.02;;;18.80;39.90;;;;;;5088556;28;20035;-36
2022/01/17 01:47:42;;;;;;;9.93;7.25;;;18.80;39.90;;;;;;5087536;28;20052;-36
2022/01/17 01:50:28;;;;;;;11.13;7.90;;;18.80;39.90;;;;;;5087617;28;20085;-37
2022/01/17 01:53:12;;;;;;;9.63;7.65;;;18.80;40.00;;;;;;5082367;28;20024;-37
2022/01/17 01:55:38;;;;;;;10.15;7.75;;;18.80;39.90;;;;;;5082524;28;20066;-36
2022/01/17 01:58:04;;;;;;;11.70;7.70;;;18.80;40.00;;;;;;5081985;28;20064;-36
2022/01/17 02:00:30;;;;;;;9.65;7.63;;;18.80;40.00;;;;;;5081538;28;20371;-36
2022/01/17 02:02:56;;;;;;;10.35;8.00;;;18.80;40.00;;;;;;5081789;28;20020;-36
2022/01/17 02:05:22;;;;;;;10.45;7.80;;;18.80;39.90;;;;;;5081723;28;20005;-35
2022/01/17 02:07:49;;;;;;;10.73;7.93;;;18.80;39.90;;;;;;5082627;28;20128;-36
2022/01/17 02:10:15;;;;;;;10.80;7.75;;;18.80;39.90;;;;;;5081740;28;20017;-35
2022/01/17 02:12:41;;;;;;;10.32;7.30;;;18.80;39.90;;;;;;5081637;28;20070;-35
2022/01/17 02:15:11;;;;;;;11.27;7.90;;;18.80;40.00;;;;;;5080976;28;20017;-35
2022/01/17 02:17:45;;;;;;;9.98;7.57;;;18.80;39.90;;;;;;5081108;28;20013;-36
2022/01/17 02:20:17;;;;;;;10.57;7.97;;;18.80;39.90;;;;;;5080786;28;20025;-37
2022/01/17 02:22:42;;;;;;;11.15;7.60;;;18.80;39.80;;;;;;5083514;28;20019;-37
2022/01/17 02:25:09;;;;;;;10.48;7.55;;;18.80;39.80;;;;;;5085535;28;20024;-36
2022/01/17 02:27:35;;;;;;;9.57;8.02;;;18.80;39.80;;;;;;5085872;28;20028;-37
2022/01/17 02:30:01;;;;;;;9.40;6.97;;;18.90;39.80;;;;;;5086525;28;20019;-36
2022/01/17 02:32:27;;;;;;;11.52;7.75;;;18.80;39.90;;;;;;5086421;28;20021;-36
2022/01/17 02:35:19;;;;;;;10.30;7.53;;;18.80;39.90;;;;;;5086285;28;20025;-36
2022/01/17 02:37:44;;;;;;;11.10;7.72;;;18.80;39.90;;;;;;5080130;28;20059;-35
2022/01/17 02:40:12;;;;;;;10.35;7.93;;;18.80;40.00;;;;;;5079502;28;20069;-35
2022/01/17 02:42:39;;;;;;;11.65;8.52;;;18.80;40.00;;;;;;5079762;28;20066;-35
2022/01/17 02:45:12;;;;;;;8.82;7.18;;;18.80;40.00;;;;;;5075864;28;20417;-35
2022/01/17 02:47:38;;;;;;;10.52;7.82;;;18.80;40.00;;;;;;5076179;28;20021;-38
2022/01/17 02:50:05;;;;;;;11.05;7.75;;;18.80;40.10;;;;;;5076563;28;20016;-38
2022/01/17 02:52:32;;;;;;;11.32;7.80;;;18.80;40.00;;;;;;5076094;28;20062;-38
2022/01/17 02:54:58;;;;;;;11.13;7.78;;;18.80;40.00;;;;;;5075413;28;20040;-38
2022/01/17 02:57:25;;;;;;;10.85;7.80;;;18.90;40.00;;;;;;5075689;28;20032;-39
2022/01/17 02:59:50;;;;;;;9.60;7.30;;;18.80;40.00;;;;;;5075408;28;20403;-38
2022/01/17 03:02:17;;;;;;;10.30;7.70;;;18.80;40.00;;;;;;5075808;28;20021;-38
2022/01/17 03:04:43;;;;;;;9.95;7.18;;;18.90;40.10;;;;;;5057885;28;20028;-40
2022/01/17 03:07:09;;;;;;;9.13;7.07;;;18.80;39.90;;;;;;5043099;28;20028;-39
2022/01/17 03:09:45;;;;;;;10.70;7.80;;;18.90;40.00;;;;;;5081257;28;20051;-35
2022/01/17 03:12:12;;;;;;;9.60;7.47;;;18.80;40.00;;;;;;5080975;28;20013;-36
2022/01/17 03:14:38;;;;;;;10.25;7.30;;;18.90;40.00;;;;;;5080973;28;20078;-35
2022/01/17 03:17:05;;;;;;;11.02;7.43;;;18.80;40.00;;;;;;5080638;28;20009;-35
2022/01/17 03:19:31;;;;;;;10.07;7.43;;;18.90;40.00;;;;;;5080591;28;20025;-36
2022/01/17 03:21:57;;;;;;;10.68;7.60;;;18.90;40.00;;;;;;5061746;28;20020;-35
2022/01/17 03:24:23;;;;;;;10.05;7.80;;;18.90;40.00;;;;;;5075740;28;20400;-37
2022/01/17 03:26:49;;;;;;;10.70;7.72;;;18.90;40.00;;;;;;5075871;28;20391;-36
2022/01/17 03:29:15;;;;;;;10.60;7.65;;;18.90;40.10;;;;;;5076081;28;20008;-36
2022/01/17 03:31:41;;;;;;;10.23;7.50;;;18.90;40.00;;;;;;5075966;28;20028;-36
2022/01/17 03:34:07;;;;;;;9.52;7.35;;;18.90;40.00;;;;;;5075723;28;20016;-35
2022/01/17 03:36:33;;;;;;;9.25;7.07;;;18.90;40.00;;;;;;5076371;28;20048;-36
2022/01/17 03:39:00;;;;;;;10.40;7.25;;;18.90;40.00;;;;;;5079914;28;20016;-36
2022/01/17 03:41:25;;;;;;;9.50;7.38;;;18.90;40.00;;;;;;5079062;28;20021;-35
2022/01/17 03:43:52;;;;;;;9.93;7.57;;;18.90;39.90;;;;;;5079186;28;20490;-36
2022/01/17 03:46:18;;;;;;;10.88;7.75;;;18.90;39.90;;;;;;5079278;28;20025;-35
2022/01/17 03:48:44;;;;;;;9.38;6.97;;;18.90;39.90;;;;;;5079800;28;20016;-35
2022/01/17 03:51:11;;;;;;;10.15;7.30;;;18.90;39.90;;;;;;5079871;28;20029;-36
2022/01/17 03:53:37;;;;;;;10.20;7.20;;;18.90;39.90;;;;;;5075277;28;20036;-36
2022/01/17 03:56:04;;;;;;;9.93;7.43;;;19.00;40.50;;;;;;5074392;28;20103;-36
2022/01/17 03:58:30;;;;;;;9.65;7.22;;;18.90;39.90;;;;;;5074835;28;20062;-36
2022/01/17 04:00:57;;;;;;;10.77;7.70;;;18.90;40.00;;;;;;5075039;28;20017;-35
2022/01/17 04:03:24;;;;;;;9.98;7.38;;;18.90;40.00;;;;;;5074446;28;20028;-37
2022/01/17 04:05:50;;;;;;;10.88;7.53;;;19.00;40.00;;;;;;5074452;28;20032;-35
2022/01/17 04:08:17;;;;;;;10.15;7.47;;;19.00;40.00;;;;;;5077501;28;20524;-36
2022/01/17 04:10:43;;;;;;;9.32;7.20;;;19.00;40.00;;;;;;5078001;28;20474;-35
2022/01/17 04:13:09;;;;;;;9.27;7.32;;;19.00;40.00;;;;;;5078395;28;20457;-36
2022/01/17 04:15:35;;;;;;;9.60;7.03;;;19.00;39.90;;;;;;5078468;28;20070;-37
2022/01/17 04:18:06;;;;;;;9.57;6.88;;;19.00;39.90;;;;;;5077869;28;20025;-36
2022/01/17 04:20:32;;;;;;;;;;;19.10;39.80;;;;;;5078185;28;20097;-35
2022/01/17 04:22:59;;;;;;;9.18;7.13;;;19.10;39.70;;;;;;5078976;28;19959;-36
2022/01/17 04:25:26;;;;;;;10.60;7.38;;;19.20;39.60;;;;;;5079260;28;20017;-36
2022/01/17 04:27:53;;;;;;;9.80;7.43;;;19.20;39.50;;;;;;5079394;28;20019;-36
2022/01/17 04:30:19;;;;;;;9.80;7.00;;;19.30;39.40;;;;;;5060149;28;20044;-38
2022/01/17 04:32:45;;;;;;;8.73;7.13;;;19.30;39.30;;;;;;5078589;28;20386;-37
2022/01/17 04:35:12;;;;;;;9.25;6.97;;;19.40;39.20;;;;;;5060328;28;20104;-36
2022/01/17 04:37:38;;;;;;;9.63;7.03;;;19.40;39.10;;;;;;5074936;28;20486;-35
2022/01/17 04:40:05;;;;;;;9.82;7.05;;;19.50;39.00;;;;;;5074489;28;20016;-36
2022/01/17 04:42:31;;;;;;;9.70;7.20;;;19.60;38.80;;;;;;5057307;28;20104;-35
2022/01/17 04:45:11;;;;;;;8.20;6.57;;;19.70;38.70;;;;;;5076136;28;20009;-35
2022/01/17 04:47:38;;;;;;;8.77;6.70;;;19.70;38.50;;;;;;5077003;28;20115;-36
2022/01/17 04:50:13;;;;;;;8.85;6.85;;;19.80;38.40;;;;;;5077105;28;20030;-36
2022/01/17 04:52:39;;;;;;;9.52;7.15;;;19.90;38.30;;;;;;5078847;28;20024;-37
2022/01/17 04:55:08;;;;;;;8.15;6.60;;;19.90;38.20;;;;;;5078239;28;20056;-37
2022/01/17 04:57:34;;;;;;;8.45;6.97;;;20.00;38.10;;;;;;5078588;28;20391;-37
2022/01/17 05:00:03;;;;;;;9.35;6.82;;;20.10;37.90;;;;;;5078960;28;20024;-37
2022/01/17 05:02:29;;;;;;;8.27;6.63;;;20.20;37.80;;;;;;5077033;28;20040;-36
2022/01/17 05:04:55;;;;;;;9.68;6.68;;;20.20;37.80;;;;;;5078005;28;20270;-36
2022/01/17 05:07:21;;;;;;;8.23;6.95;;;20.30;37.70;;;;;;5080461;28;20024;-36
2022/01/17 05:09:48;;;;;;;10.10;6.65;;;20.30;38.10;;;;;;5062584;28;20008;-38
2022/01/17 05:12:14;;;;;;;9.05;6.70;;;20.40;37.50;;;;;;5080988;28;20020;-37
2022/01/17 05:14:42;;;;;;;8.27;6.60;;;20.40;37.40;;;;;;5063383;28;20576;-36
2022/01/17 05:17:57;;;;;;;7.28;5.80;;;20.50;37.30;;;;;;5081163;28;20019;-38
2022/01/17 05:20:00;;;;;;;8.23;6.38;;;20.50;37.10;;;;;;5069793;28;20033;-36
2022/01/17 05:22:31;;;;;;;8.70;7.27;;;20.60;37.00;;;;;;5080768;28;20017;-37
2022/01/17 05:24:56;;;;;;;8.60;6.75;;;20.70;36.90;;;;;;5080912;28;20255;-37
2022/01/17 05:27:23;;;;;;;6.78;5.90;;;20.70;36.80;;;;;;5080273;28;20047;-36
2022/01/17 05:29:49;;;;;;;8.38;6.30;;;20.80;36.70;;;;;;5080273;28;20056;-37
2022/01/17 05:32:15;;;;;;;7.47;6.20;;;20.80;36.60;;;;;;5080216;28;20478;-37
2022/01/17 05:34:41;;;;;;;8.60;6.47;;;20.90;37.10;;;;;;5062034;28;20028;-38
2022/01/17 05:37:10;;;;;;;8.32;6.22;;;21.00;36.40;;;;;;5079911;28;20025;-37
2022/01/17 05:39:37;;;;;;;8.35;6.55;;;21.00;36.30;;;;;;5077655;28;20024;-37
2022/01/17 05:42:04;;;;;;;8.15;6.32;;;21.10;36.30;;;;;;5077391;28;20092;-37
2022/01/17 05:44:30;;;;;;;8.60;6.82;;;21.10;36.20;;;;;;5077350;28;20025;-37
2022/01/17 05:46:56;;;;;;;8.95;6.68;;;21.20;36.10;;;;;;5077848;28;20095;-37
2022/01/17 05:49:23;;;;;;;8.35;6.35;;;21.20;36.00;;;;;;5059248;28;20016;-36
2022/01/17 05:51:49;;;;;;;7.82;6.38;;;21.20;36.00;;;;;;5076276;28;20095;-35
2022/01/17 05:54:16;;;;;;;7.45;5.72;;;21.30;35.90;;;;;;5076368;28;20049;-36
2022/01/17 05:56:42;;;;;;;8.82;6.80;;;21.30;35.90;;;;;;5077264;28;20021;-36
2022/01/17 05:59:08;;;;;;;8.60;6.25;;;21.30;35.90;;;;;;5076744;28;20015;-37
2022/01/17 06:01:39;;;;;;;7.22;5.90;;;21.30;35.80;;;;;;5076507;28;20017;-37
2022/01/17 06:04:05;;;;;;;7.97;6.25;;;21.40;35.80;;;;;;5076013;28;20095;-36
2022/01/17 06:06:31;;;;;;;7.60;6.47;;;21.40;35.70;;;;;;5075114;28;20047;-35
2022/01/17 06:08:57;;;;;;;8.50;6.47;;;21.50;35.70;;;;;;5073169;28;20009;-36
2022/01/17 06:11:23;;;;;;;7.20;6.30;;;21.50;35.60;;;;;;5073106;28;20016;-35
2022/01/17 06:13:49;;;;;;;7.75;5.88;;;21.50;35.50;;;;;;5073449;28;20020;-36
2022/01/17 06:16:15;;;;;;;7.35;6.25;;;21.60;35.50;;;;;;5073304;28;20013;-35
2022/01/17 06:18:41;;;;;;;7.15;6.03;;;21.60;35.40;;;;;;5074258;28;20020;-35
2022/01/17 06:21:07;;;;;;;8.32;6.32;;;21.60;35.30;;;;;;5077185;28;20023;-36
2022/01/17 06:23:33;;;;;;;8.13;6.43;;;21.60;35.30;;;;;;5060734;28;20028;-36
2022/01/17 06:26:00;;;;;;;7.85;6.13;;;21.60;35.30;;;;;;5043543;28;20154;-36
2022/01/17 06:28:26;;;;;;;7.97;6.10;;;21.70;35.30;;;;;;5078326;28;20088;-35
2022/01/17 06:30:52;;;;;;;6.88;5.90;;;21.70;35.20;;;;;;5077404;28;20120;-36
2022/01/17 06:33:18;;;;;;;7.45;6.32;;;21.80;35.20;;;;;;5059394;28;20620;-36
2022/01/17 06:35:44;;;;;;;7.93;6.30;;;21.80;35.20;;;;;;5077703;28;20028;-36
2022/01/17 06:38:10;;;;;;;8.07;6.30;;;21.80;35.10;;;;;;5079037;28;20092;-36
2022/01/17 06:40:36;;;;;;;8.02;6.10;;;21.80;34.80;;;;;;5061733;28;20024;-36
2022/01/17 06:43:04;;;;;;;7.75;6.07;;;21.80;35.10;;;;;;5077956;28;20096;-35
2022/01/17 06:45:30;;;;;;;8.13;6.18;;;21.80;35.00;;;;;;5078255;28;20107;-36
2022/01/17 06:47:56;;;;;;;8.20;6.45;;;21.90;35.00;;;;;;5079587;28;20028;-38
2022/01/17 06:50:22;;;;;;;7.90;6.22;;;21.90;35.00;;;;;;5079554;28;20490;-36
2022/01/17 06:52:49;;;;;;;7.38;6.22;;;22.00;34.90;;;;;;5061062;28;20016;-36
2022/01/17 06:55:14;;;;;;;7.93;6.10;;;22.00;34.80;;;;;;5037645;28;20042;-36
2022/01/17 06:57:41;;;;;;;7.20;6.20;;;22.00;34.80;;;;;;5036115;28;20056;-36
2022/01/17 07:00:08;;;;;;;7.07;6.03;;;22.00;34.90;;;;;;5034564;28;20029;-36
2022/01/17 07:02:34;;;;;;;8.50;6.15;;;22.00;34.80;;;;;;5036711;28;20499;-36
2022/01/17 07:05:00;;;;;;;7.85;6.10;;;22.00;34.80;;;;;;5036952;28;20080;-35
2022/01/17 07:07:26;;;;;;;9.48;6.65;;;22.00;34.80;;;;;;5036105;28;20029;-36
2022/01/17 07:09:52;;;;;;;8.50;6.40;;;22.00;34.80;;;;;;5036045;28;20093;-37
2022/01/17 07:12:18;;;;;;;8.63;6.50;;;22.00;34.80;;;;;;5034769;28;20127;-35
2022/01/17 07:14:45;;;;;;;8.23;6.25;;;22.10;34.80;;;;;;5035588;28;20017;-36
2022/01/17 07:17:11;;;;;;;8.57;6.47;;;22.10;34.80;;;;;;5034024;28;20056;-36
2022/01/17 07:19:37;;;;;;;8.80;6.35;;;22.10;34.70;;;;;;5034523;28;20009;-35
2022/01/17 07:22:04;;;;;;;7.38;6.40;;;22.10;34.60;;;;;;5031966;28;20025;-35
2022/01/17 07:24:30;;;;;;;9.93;7.10;;;22.10;34.80;;;;;;5033030;28;20017;-36
2022/01/17 07:26:56;;;;;;;18.63;9.85;;;21.90;35.40;;;;;;5033739;28;20492;-36
2022/01/17 07:29:26;;;;;;;17.05;9.77;;;20.50;39.20;;;;;;5033364;28;20018;-35
2022/01/17 07:31:53;;;;;;;19.00;10.73;;;18.70;44.00;;;;;;5033982;28;20017;-35
2022/01/17 07:34:22;;;;;;;17.80;9.18;;;18.40;44.90;;;;;;5033717;28;20468;-34
2022/01/17 07:36:48;;;;;;;20.88;9.52;;;18.40;45.30;;;;;;5032484;28;20018;-34
2022/01/17 07:39:15;;;;;;;13.43;9.40;;;18.60;45.10;;;;;;5034611;28;20503;-34
2022/01/17 07:41:40;;;;;;;17.58;9.48;;;18.90;44.00;;;;;;5034072;28;20037;-34
2022/01/17 07:44:08;;;;;;;13.60;9.23;;;19.00;44.30;;;;;;5033989;28;20387;-35
2022/01/17 07:46:47;;;;;;;15.40;8.35;;;18.80;44.30;;;;;;5033687;28;20129;-35
2022/01/17 07:49:19;;;;;;;14.43;9.15;;;18.50;45.80;;;;;;5032396;28;20024;-34
2022/01/17 07:51:45;;;;;;;12.70;8.25;;;18.90;44.70;;;;;;5033482;28;20105;-34
2022/01/17 07:54:14;;;;;;;14.65;8.75;;;18.90;44.60;;;;;;5031803;28;20034;-34
2022/01/17 07:56:40;;;;;;;12.82;7.57;;;18.70;45.10;;;;;;5033910;28;20025;-36
2022/01/17 07:59:09;;;;;;;15.20;8.98;;;18.60;45.10;;;;;;5033680;28;20017;-36
2022/01/17 08:01:52;;;;;;;14.30;8.50;;;18.10;46.10;;;;;;5031525;28;20022;-35
2022/01/17 08:04:18;;;;;;;19.65;7.60;;;18.10;46.10;;;;;;5033814;28;20086;-34
2022/01/17 08:06:46;;;;;;;15.68;8.68;;;18.20;46.30;;;;;;5032282;28;20377;-34
2022/01/17 08:09:25;;;;;;;13.38;7.20;;;18.30;45.00;;;;;;5031999;28;20024;-35
2022/01/17 08:11:51;;;;;;;14.55;7.70;;;18.10;46.60;;;;;;5032796;28;20029;-38
2022/01/17 08:14:17;;;;;;;15.32;7.25;;;18.00;46.40;;;;;;5033180;28;20014;-37
2022/01/17 08:16:43;;;;;;;17.67;6.85;;;18.30;45.70;;;;;;5031994;28;20217;-37
2022/01/17 08:19:09;;;;;;;18.02;6.95;;;18.50;45.60;;;;;;5033099;28;20053;-36
2022/01/17 08:21:35;;;;;;;17.88;6.75;;;17.70;46.50;;;;;;5033019;28;20384;-36
2022/01/17 08:24:03;;;;;;;17.13;6.45;;;18.10;46.50;;;;;;5033712;28;20476;-37
2022/01/17 08:26:29;;;;;;;17.38;5.78;;;18.60;45.20;;;;;;5032734;28;20449;-37
2022/01/17 08:28:55;;;;;;;15.55;6.45;;;18.60;44.80;;;;;;5033043;28;20080;-35
2022/01/17 08:31:24;;;;;;;37.58;6.30;;;18.40;45.20;;;;;;5031758;28;20409;-35
2022/01/17 08:33:53;;;;;;;15.27;5.68;;;18.40;44.70;;;;;;5033518;28;20061;-35
2022/01/17 08:36:20;;;;;;;11.50;5.47;;;18.50;44.40;;;;;;5034250;28;20029;-36
2022/01/17 08:38:49;;;;;;;18.00;6.68;;;18.50;43.10;;;;;;5034538;28;20017;-36
2022/01/17 08:41:16;;;;;;;10.55;5.63;;;18.30;43.50;;;;;;5034430;28;20018;-37
2022/01/17 08:43:42;;;;;;;16.63;6.20;;;18.50;43.90;;;;;;5032967;28;20021;-36
2022/01/17 08:46:08;;;;;;;17.17;7.13;;;18.60;42.90;;;;;;5032378;28;20044;-36
2022/01/17 08:48:34;;;;;;;13.77;5.97;;;18.60;42.50;;;;;;5033836;28;20101;-38
2022/01/17 08:51:00;;;;;;;12.00;5.75;;;18.20;44.00;;;;;;5033323;28;20044;-36
2022/01/17 08:53:26;;;;;;;11.73;5.78;;;18.70;43.10;;;;;;5021395;28;20043;-36
2022/01/17 08:55:52;;;;;;;15.13;6.40;;;18.40;43.80;;;;;;5073528;28;20064;-36
2022/01/17 08:58:17;;;;;;;13.27;6.00;;;18.80;42.60;;;;;;5073510;28;20428;-36
2022/01/17 09:00:43;;;;;;;12.32;5.90;;;19.10;41.80;;;;;;5073325;28;20452;-35
2022/01/17 09:03:10;;;;;;;13.10;5.80;;;19.30;41.30;;;;;;5055408;28;20033;-36
2022/01/17 09:05:36;;;;;;;12.50;5.55;;;19.10;41.40;;;;;;5074361;28;20078;-36
2022/01/17 09:08:03;;;;;;;14.65;5.38;;;18.80;42.40;;;;;;5074558;28;20084;-36
2022/01/17 09:10:28;;;;;;;19.15;5.97;;;19.00;42.10;;;;;;5073309;28;20024;-36
2022/01/17 09:12:56;;;;;;;20.30;5.93;;;19.20;41.40;;;;;;5073265;28;20016;-36
2022/01/17 09:15:23;;;;;;;15.45;5.32;;;19.50;40.90;;;;;;5054906;28;20039;-35
2022/01/17 09:17:49;;;;;;;16.25;5.88;;;19.70;40.20;;;;;;5072231;28;20016;-35
2022/01/17 09:20:14;;;;;;;17.73;5.95;;;20.00;39.40;;;;;;5071963;28;20078;-35
2022/01/17 09:22:45;;;;;;;16.48;4.93;;;20.20;38.80;;;;;;5072494;28;20105;-35
2022/01/17 09:25:12;;;;;;;13.35;4.97;;;20.30;38.40;;;;;;5072708;28;20155;-36
2022/01/17 09:27:37;;;;;;;16.27;5.25;;;20.60;38.00;;;;;;5072269;28;20028;-34
2022/01/17 09:30:05;;;;;;;13.40;4.82;;;20.70;37.60;;;;;;5054628;28;20012;-34
2022/01/17 09:32:31;;;;;;;13.35;5.03;;;20.80;37.30;;;;;;5072754;28;20100;-34
2022/01/17 09:34:59;;;;;;;15.20;4.38;;;20.90;37.00;;;;;;5073266;28;20015;-34
2022/01/17 09:37:25;;;;;;;16.40;4.68;;;21.00;36.90;;;;;;5054699;28;20515;-34
2022/01/17 09:39:56;;;;;;;15.57;4.82;;;21.00;36.60;;;;;;5055229;28;20032;-36
2022/01/17 09:42:35;;;;;;;14.80;4.72;;;21.00;36.50;;;;;;5072672;28;20015;-34
2022/01/17 09:45:04;;;;;;;13.83;4.50;;;21.00;36.50;;;;;;5072472;28;20025;-35
2022/01/17 09:47:31;;;;;;;13.05;4.75;;;21.00;36.40;;;;;;5072766;28;20278;-36
2022/01/17 09:49:57;;;;;;;13.45;4.82;;;21.10;36.30;;;;;;5073125;28;20017;-35
2022/01/17 09:52:44;;;;;;;17.45;4.85;;;21.00;36.40;;;;;;5054193;28;20482;-34
2022/01/17 09:55:11;;;;;;;14.30;4.80;;;20.30;38.90;;;;;;5059896;28;20393;-35
2022/01/17 09:57:48;;;;;;;13.60;4.70;;;20.20;39.10;;;;;;5076379;28;20062;-34
2022/01/17 10:00:18;;;;;;;15.38;5.03;;;20.30;38.70;;;;;;5058030;28;20013;-35
2022/01/17 10:02:44;;;;;;;11.45;4.70;;;20.40;38.10;;;;;;5076721;28;20051;-35
2022/01/17 10:05:10;;;;;;;13.15;4.50;;;20.50;37.70;;;;;;5076485;28;20036;-34
2022/01/17 10:08:01;;;;;;;12.95;4.75;;;20.60;37.40;;;;;;5075499;28;20032;-36
2022/01/17 10:10:49;;;;;;;13.35;4.05;;;20.60;37.10;;;;;;5076656;28;20099;-35
2022/01/17 10:13:26;;;;;;;13.15;4.10;;;20.70;37.10;;;;;;5078078;28;20025;-34
2022/01/17 10:16:15;;;;;;;13.40;3.83;;;20.70;37.00;;;;;;5078220;28;20017;-35
2022/01/17 10:18:53;;;;;;;10.93;4.00;;;20.80;36.90;;;;;;5079395;28;20031;-35
2022/01/17 10:21:48;;;;;;;10.73;3.90;;;20.70;36.70;;;;;;5078058;28;20073;-35
2022/01/17 10:35:22;;;;;;;13.90;4.50;;;20.90;36.30;;;;;;5062434;28;20397;-35
2022/01/17 10:38:02;;;;;;;12.15;3.70;;;20.90;36.20;;;;;;5076643;28;20165;-36
2022/01/17 10:40:34;;;;;;;10.25;3.63;;;20.90;36.30;;;;;;5076632;28;20012;-34
2022/01/17 10:43:05;;;;;;;12.38;3.83;;;21.00;36.20;;;;;;5077242;28;20074;-34
2022/01/17 10:45:36;;;;;;;14.15;3.63;;;20.90;36.20;;;;;;5058773;28;20036;-35
2022/01/17 10:48:02;;;;;;;10.80;3.42;;;21.00;36.10;;;;;;5076705;28;20024;-35
2022/01/17 10:50:31;;;;;;;10.50;3.95;;;21.00;36.10;;;;;;5076397;28;20014;-35
2022/01/17 10:53:08;;;;;;;9.47;3.20;;;21.00;36.10;;;;;;5058736;28;20024;-35
2022/01/17 10:55:38;;;;;;;10.80;3.58;;;21.00;36.00;;;;;;5075932;28;20395;-35
2022/01/17 10:58:08;;;;;;;9.32;3.05;;;21.00;35.90;;;;;;5078052;28;20104;-36
2022/01/17 11:00:36;;;;;;;12.10;3.25;;;21.00;35.70;;;;;;5079510;28;20103;-35
2022/01/17 11:03:11;;;;;;;10.05;3.22;;;21.10;35.80;;;;;;5063166;28;20023;-35
2022/01/17 11:05:41;;;;;;;11.00;3.35;;;21.10;35.80;;;;;;5078570;28;20012;-35
2022/01/17 11:08:08;;;;;;;10.85;3.00;;;21.20;35.60;;;;;;5079441;28;20511;-35
2022/01/17 11:10:47;;;;;;;9.57;3.13;;;21.20;35.50;;;;;;5062370;28;20387;-34
2022/01/17 11:13:17;;;;;;;11.07;3.00;;;21.30;35.40;;;;;;5080636;28;20013;-35
2022/01/17 11:15:46;;;;;;;9.50;3.22;;;21.30;35.40;;;;;;5062294;28;20005;-34
2022/01/17 11:18:22;;;;;;;12.75;3.25;;;21.30;35.30;;;;;;5059342;28;20068;-34
2022/01/17 11:20:52;;;;;;;7.97;2.60;;;21.30;35.40;;;;;;5074749;28;20127;-34
2022/01/17 11:23:21;;;;;;;11.93;2.83;;;21.30;35.40;;;;;;5074493;28;20017;-34
2022/01/17 11:25:52;;;;;;;9.25;3.00;;;21.30;35.50;;;;;;5074794;28;20013;-34
2022/01/17 11:28:18;;;;;;;11.80;3.22;;;21.20;35.40;;;;;;5074731;28;20017;-35
2022/01/17 11:30:44;;;;;;;10.48;2.88;;;21.20;35.40;;;;;;5074266;28;20024;-34
2022/01/17 11:33:11;;;;;;;11.13;3.00;;;21.20;35.50;;;;;;5074243;28;20063;-35
2022/01/17 11:35:44;;;;;;;16.17;3.05;;;21.20;35.50;;;;;;5074001;28;20024;-35
2022/01/17 11:38:11;;;;;;;11.23;2.90;;;21.30;35.50;;;;;;5075488;28;20020;-35
2022/01/17 11:40:38;;;;;;;9.65;2.80;;;21.20;35.40;;;;;;5058909;28;20013;-34
2022/01/17 11:43:22;;;;;;;7.50;2.60;;;21.20;35.50;;;;;;5077503;28;20013;-35
2022/01/17 11:45:57;;;;;;;10.95;3.30;;;21.30;35.40;;;;;;5077015;28;20089;-35
2022/01/17 11:48:25;;;;;;;15.88;3.60;;;21.30;35.30;;;;;;5074599;28;20044;-36
2022/01/17 11:50:52;;;;;;;14.38;3.28;;;20.20;37.80;;;;;;5074900;28;20024;-33
2022/01/17 11:53:18;;;;;;;14.98;3.22;;;20.00;38.40;;;;;;5058567;28;20020;-36
2022/01/17 11:55:46;;;;;;;10.73;3.40;;;19.60;39.80;;;;;;5075665;28;20023;-36
2022/01/17 11:58:39;;;;;;;15.65;3.20;;;19.80;39.70;;;;;;5059029;28;20104;-36
2022/01/17 12:01:04;;;;;;;16.73;3.45;;;19.70;40.10;;;;;;5047103;28;20029;-35
2022/01/17 12:03:31;;;;;;;18.05;3.40;;;19.80;39.80;;;;;;5075013;28;20039;-34
2022/01/17 12:06:03;;;;;;;11.77;3.75;;;19.60;40.10;;;;;;5073867;28;20012;-34
2022/01/17 12:08:29;;;;;;;12.00;3.42;;;19.60;40.10;;;;;;5057867;28;20091;-34
2022/01/17 12:11:03;;;;;;;14.82;3.50;;;19.50;40.20;;;;;;5074384;28;20037;-35
2022/01/17 12:13:39;;;;;;;12.77;3.65;;;19.70;39.90;;;;;;5056768;28;20081;-35
2022/01/17 12:16:19;;;;;;;14.77;3.33;;;19.60;39.60;;;;;;5073968;28;20017;-35
2022/01/17 12:18:47;;;;;;;;;;;19.60;40.30;;;;;;5076104;28;20025;-36
2022/01/17 12:21:19;;;;;;;18.10;4.10;;;19.40;40.30;;;;;;5074082;28;19900;-36
2022/01/17 12:24:12;;;;;;;14.35;4.05;;;17.90;43.40;;;;;;5074763;28;20032;-35
2022/01/17 12:26:38;;;;;;;12.18;3.60;;;17.80;44.30;;;;;;5058935;28;20035;-35
2022/01/17 12:29:04;;;;;;;19.55;3.75;;;17.50;44.90;;;;;;5074373;28;20028;-35
2022/01/17 12:31:40;;;;;;;15.85;4.60;;;17.40;44.90;;;;;;5074622;28;20104;-35
2022/01/17 12:34:24;;;;;;;14.00;3.55;;;16.90;46.80;;;;;;5056035;28;20111;-36
2022/01/17 12:36:55;;;;;;;18.42;4.15;;;17.30;45.80;;;;;;5073399;28;20020;-36
2022/01/17 12:39:23;;;;;;;12.85;3.95;;;17.30;45.70;;;;;;5072187;28;20020;-33
2022/01/17 12:41:52;;;;;;;14.50;3.65;;;17.00;46.00;;;;;;5072582;28;20012;-35
2022/01/17 12:44:19;;;;;;;18.23;3.75;;;17.40;45.70;;;;;;5073746;28;20013;-34
2022/01/17 12:46:46;;;;;;;18.85;4.00;;;18.20;44.30;;;;;;5073498;28;20211;-34
2022/01/17 12:49:12;;;;;;;17.42;3.17;;;18.90;43.00;;;;;;5072688;28;20036;-34
2022/01/17 12:51:45;;;;;;;18.48;3.60;;;19.30;42.10;;;;;;5072441;28;20464;-35
2022/01/17 12:54:19;;;;;;;22.83;4.97;;;19.40;41.50;;;;;;5041403;28;20042;-35
2022/01/17 12:56:48;;;;;;;13.38;3.50;;;19.60;41.00;;;;;;5032129;28;20068;-35
2022/01/17 12:59:18;;;;;;;18.35;3.65;;;19.70;40.80;;;;;;5032351;28;20014;-35
2022/01/17 13:01:57;;;;;;;17.23;3.67;;;19.60;40.70;;;;;;5033022;28;20017;-34
2022/01/17 13:04:23;;;;;;;12.40;3.40;;;19.70;40.50;;;;;;5033830;28;20096;-34
2022/01/17 13:06:52;;;;;;;19.23;3.85;;;19.70;40.40;;;;;;5032751;28;20451;-35
2022/01/17 13:09:21;;;;;;;15.38;3.50;;;19.80;40.30;;;;;;5033542;28;20093;-34
2022/01/17 13:11:47;;;;;;;19.55;4.03;;;19.80;39.90;;;;;;5033619;28;20057;-34